Time,TemperatureF,DewpointF,PressureIn,WindDirection,WindDirectionDegrees,WindSpeedMPH,WindSpeedGustMPH,Humidity,HourlyPrecipIn,Conditions,Clouds,dailyrainin,SolarRadiationWatts/m^2,SoftwareType,DateUTC
2013-03-20 00:00:00,40.0,22.0,-100.00,SSE,168,2.0,4.0,49,0.00,,,0.00,0.000000,,2013-03-20 07:00:00,
2013-03-20 00:22:00,40.0,22.0,-100.00,SSE,168,2.0,4.0,49,0.00,,,0.00,0.000000,,2013-03-20 07:22:00,
2013-03-20 00:32:00,40.0,22.0,-100.00,SSE,168,2.0,4.0,49,0.00,,,0.00,0.000000,,2013-03-20 07:32:00,
2013-03-20 00:42:00,40.0,22.0,-100.00,SSE,168,2.0,4.0,49,0.00,,,0.00,0.000000,,2013-03-20 07:42:00,
2013-03-20 00:52:00,40.0,22.0,-100.00,SSE,168,2.0,4.0,49,0.00,,,0.00,0.000000,,2013-03-20 07:52:00,
2013-03-20 01:00:00,40.0,22.0,-100.00,SSW,193,2.0,6.0,48,0.00,,,0.00,0.000000,,2013-03-20 08:00:00,
2013-03-20 01:32:00,40.0,22.0,-100.00,SSW,193,2.0,6.0,48,0.00,,,0.00,0.000000,,2013-03-20 08:32:00,
2013-03-20 01:42:00,40.0,22.0,-100.00,SSW,193,2.0,6.0,48,0.00,,,0.00,0.000000,,2013-03-20 08:42:00,
2013-03-20 01:52:00,40.0,22.0,-100.00,SSW,193,2.0,6.0,48,0.00,,,0.00,0.000000,,2013-03-20 08:52:00,
2013-03-20 02:00:00,39.0,19.0,-100.00,SSW,209,3.0,8.0,45,0.00,,,0.00,0.000000,,2013-03-20 09:00:00,
2013-03-20 02:33:00,39.0,19.0,-100.00,SSW,209,3.0,8.0,45,0.00,,,0.00,0.000000,,2013-03-20 09:33:00,
2013-03-20 02:43:00,39.0,19.0,-100.00,SSW,209,3.0,8.0,45,0.00,,,0.00,0.000000,,2013-03-20 09:43:00,
2013-03-20 02:53:00,39.0,19.0,-100.00,SSW,209,3.0,8.0,45,0.00,,,0.00,0.000000,,2013-03-20 09:53:00,
2013-03-20 03:00:00,40.0,19.0,-100.00,South,188,3.0,9.0,43,0.00,,,0.00,0.000000,,2013-03-20 10:00:00,
2013-03-20 03:33:00,40.0,19.0,-100.00,South,188,3.0,9.0,43,0.00,,,0.00,0.000000,,2013-03-20 10:33:00,
2013-03-20 03:43:00,40.0,19.0,-100.00,South,188,3.0,9.0,43,0.00,,,0.00,0.000000,,2013-03-20 10:43:00,
2013-03-20 03:53:00,40.0,19.0,-100.00,South,188,3.0,9.0,43,0.00,,,0.00,0.000000,,2013-03-20 10:53:00,
2013-03-20 04:00:00,41.0,19.0,-100.00,South,182,4.0,11.0,40,0.00,,,0.00,0.000000,,2013-03-20 11:00:00,
2013-03-20 04:32:00,41.0,19.0,-100.00,South,182,4.0,11.0,40,0.00,,,0.00,0.000000,,2013-03-20 11:32:00,
2013-03-20 04:42:00,41.0,19.0,-100.00,South,182,4.0,11.0,40,0.00,,,0.00,0.000000,,2013-03-20 11:42:00,
2013-03-20 04:52:00,41.0,19.0,-100.00,South,182,4.0,11.0,40,0.00,,,0.00,0.000000,,2013-03-20 11:52:00,
2013-03-20 05:00:00,39.0,18.0,-100.00,SSW,211,3.0,11.0,43,0.00,,,0.00,0.000000,,2013-03-20 12:00:00,
2013-03-20 05:33:00,39.0,18.0,-100.00,SSW,211,3.0,11.0,43,0.00,,,0.00,0.000000,,2013-03-20 12:33:00,
2013-03-20 05:42:00,39.0,18.0,-100.00,SSW,211,3.0,11.0,43,0.00,,,0.00,0.000000,,2013-03-20 12:42:00,
2013-03-20 05:52:00,39.0,18.0,-100.00,SSW,211,3.0,11.0,43,0.00,,,0.00,0.000000,,2013-03-20 12:52:00,
2013-03-20 06:00:00,40.0,16.0,-100.00,SSW,202,7.0,17.0,38,0.00,,,0.00,0.000000,,2013-03-20 13:00:00,
2013-03-20 06:32:00,40.0,16.0,-100.00,SSW,202,7.0,17.0,38,0.00,,,0.00,0.000000,,2013-03-20 13:32:00,
2013-03-20 06:42:00,40.0,16.0,-100.00,SSW,202,7.0,17.0,38,0.00,,,0.00,0.000000,,2013-03-20 13:42:00,
2013-03-20 06:53:00,40.0,16.0,-100.00,SSW,202,7.0,17.0,38,0.00,,,0.00,0.000000,,2013-03-20 13:53:00,
2013-03-20 07:00:00,39.0,17.0,-100.00,SSW,194,6.0,14.0,40,0.00,,,0.00,0.000000,,2013-03-20 14:00:00,
2013-03-20 07:23:00,39.0,17.0,-100.00,SSW,194,6.0,14.0,40,0.00,,,0.00,0.000000,,2013-03-20 14:23:00,
2013-03-20 07:34:00,39.0,17.0,-100.00,SSW,194,6.0,14.0,40,0.00,,,0.00,0.000000,,2013-03-20 14:34:00,
2013-03-20 07:43:00,39.0,17.0,-100.00,SSW,194,6.0,14.0,40,0.00,,,0.00,0.000000,,2013-03-20 14:43:00,
2013-03-20 07:52:00,39.0,17.0,-100.00,SSW,194,6.0,14.0,40,0.00,,,0.00,0.000000,,2013-03-20 14:52:00,
2013-03-20 08:00:00,40.0,16.0,-100.00,SSW,200,4.0,16.0,38,0.00,,,0.00,37.000000,,2013-03-20 15:00:00,
2013-03-20 08:33:00,40.0,16.0,-100.00,SSW,200,4.0,16.0,38,0.00,,,0.00,37.000000,,2013-03-20 15:33:00,
2013-03-20 08:43:00,40.0,16.0,-100.00,SSW,200,4.0,16.0,38,0.00,,,0.00,37.000000,,2013-03-20 15:43:00,
2013-03-20 08:53:00,40.0,16.0,-100.00,SSW,200,4.0,16.0,38,0.00,,,0.00,37.000000,,2013-03-20 15:53:00,
2013-03-20 09:00:00,41.0,16.0,-100.00,South,188,5.0,15.0,36,0.00,,,0.00,150.000000,,2013-03-20 16:00:00,
2013-03-20 09:23:00,41.0,16.0,-100.00,South,188,5.0,15.0,36,0.00,,,0.00,150.000000,,2013-03-20 16:23:00,
2013-03-20 09:33:00,41.0,16.0,-100.00,South,188,5.0,15.0,36,0.00,,,0.00,150.000000,,2013-03-20 16:33:00,
2013-03-20 09:43:00,41.0,16.0,-100.00,South,188,5.0,15.0,36,0.00,,,0.00,150.000000,,2013-03-20 16:43:00,
2013-03-20 09:53:00,41.0,16.0,-100.00,South,188,5.0,15.0,36,0.00,,,0.00,150.000000,,2013-03-20 16:53:00,
2013-03-20 10:00:00,48.0,18.0,-100.00,South,180,4.0,9.0,30,0.00,,,0.00,314.000000,,2013-03-20 17:00:00,
2013-03-20 10:33:00,48.0,18.0,-100.00,South,180,4.0,9.0,30,0.00,,,0.00,314.000000,,2013-03-20 17:33:00,
2013-03-20 10:42:00,48.0,18.0,-100.00,South,180,4.0,9.0,30,0.00,,,0.00,314.000000,,2013-03-20 17:42:00,
2013-03-20 10:52:00,48.0,18.0,-100.00,South,180,4.0,9.0,30,0.00,,,0.00,314.000000,,2013-03-20 17:52:00,
2013-03-20 11:00:00,50.0,16.0,-100.00,SSW,209,7.0,13.0,26,0.00,,,0.00,508.000000,,2013-03-20 18:00:00,
2013-03-20 11:34:00,50.0,16.0,-100.00,SSW,209,7.0,13.0,26,0.00,,,0.00,508.000000,,2013-03-20 18:34:00,
2013-03-20 11:43:00,50.0,16.0,-100.00,SSW,209,7.0,13.0,26,0.00,,,0.00,508.000000,,2013-03-20 18:43:00,
2013-03-20 11:52:00,50.0,16.0,-100.00,SSW,209,7.0,13.0,26,0.00,,,0.00,508.000000,,2013-03-20 18:52:00,
2013-03-20 12:00:00,55.0,18.0,-100.00,SW,223,5.0,12.0,23,0.00,,,0.00,749.000000,,2013-03-20 19:00:00,
2013-03-20 12:33:00,55.0,18.0,-100.00,SW,223,5.0,12.0,23,0.00,,,0.00,749.000000,,2013-03-20 19:33:00,
2013-03-20 12:42:00,55.0,18.0,-100.00,SW,223,5.0,12.0,23,0.00,,,0.00,749.000000,,2013-03-20 19:42:00,
2013-03-20 12:53:00,55.0,18.0,-100.00,SW,223,5.0,12.0,23,0.00,,,0.00,749.000000,,2013-03-20 19:53:00,
2013-03-20 13:00:00,55.0,19.0,-100.00,West,266,11.0,18.0,24,0.00,,,0.00,876.000000,,2013-03-20 20:00:00,
2013-03-20 13:32:00,55.0,19.0,-100.00,West,266,11.0,18.0,24,0.00,,,0.00,876.000000,,2013-03-20 20:32:00,
2013-03-20 13:42:00,55.0,19.0,-100.00,West,266,11.0,18.0,24,0.00,,,0.00,876.000000,,2013-03-20 20:42:00,
2013-03-20 13:52:00,55.0,19.0,-100.00,West,266,11.0,18.0,24,0.00,,,0.00,876.000000,,2013-03-20 20:52:00,
2013-03-20 14:00:00,53.0,17.0,-100.00,West,262,17.0,29.0,24,0.00,,,0.00,914.000000,,2013-03-20 21:00:00,
2013-03-20 14:33:00,53.0,17.0,-100.00,West,262,17.0,29.0,24,0.00,,,0.00,914.000000,,2013-03-20 21:33:00,
2013-03-20 14:42:00,53.0,17.0,-100.00,West,262,17.0,29.0,24,0.00,,,0.00,914.000000,,2013-03-20 21:42:00,
2013-03-20 14:52:00,53.0,17.0,-100.00,West,262,17.0,29.0,24,0.00,,,0.00,914.000000,,2013-03-20 21:52:00,
2013-03-20 15:00:00,54.0,21.0,-100.00,West,268,14.0,33.0,27,0.00,,,0.00,588.000000,,2013-03-20 22:00:00,
2013-03-20 15:33:00,54.0,21.0,-100.00,West,268,14.0,33.0,27,0.00,,,0.00,588.000000,,2013-03-20 22:33:00,
2013-03-20 15:43:00,54.0,21.0,-100.00,West,268,14.0,33.0,27,0.00,,,0.00,588.000000,,2013-03-20 22:43:00,
2013-03-20 15:52:00,54.0,21.0,-100.00,West,268,14.0,33.0,27,0.00,,,0.00,588.000000,,2013-03-20 22:52:00,
2013-03-20 16:00:00,54.0,19.0,-100.00,West,262,11.0,26.0,25,0.00,,,0.00,539.000000,,2013-03-20 23:00:00,
2013-03-20 16:23:00,54.0,19.0,-100.00,West,262,11.0,26.0,25,0.00,,,0.00,539.000000,,2013-03-20 23:23:00,
2013-03-20 16:33:00,54.0,19.0,-100.00,West,262,11.0,26.0,25,0.00,,,0.00,539.000000,,2013-03-20 23:33:00,
2013-03-20 16:43:00,54.0,19.0,-100.00,West,262,11.0,26.0,25,0.00,,,0.00,539.000000,,2013-03-20 23:43:00,
2013-03-20 16:52:00,54.0,19.0,-100.00,West,262,11.0,26.0,25,0.00,,,0.00,539.000000,,2013-03-20 23:52:00,
2013-03-20 17:00:00,53.0,21.0,-100.00,WSW,254,12.0,23.0,28,0.00,,,0.00,525.000000,,2013-03-21 00:00:00,
2013-03-20 17:33:00,53.0,21.0,-100.00,WSW,254,12.0,23.0,28,0.00,,,0.00,525.000000,,2013-03-21 00:33:00,
2013-03-20 17:42:00,53.0,21.0,-100.00,WSW,254,12.0,23.0,28,0.00,,,0.00,525.000000,,2013-03-21 00:42:00,
2013-03-20 17:52:00,53.0,21.0,-100.00,WSW,254,12.0,23.0,28,0.00,,,0.00,525.000000,,2013-03-21 00:52:00,
2013-03-20 18:00:00,51.0,21.0,-100.00,West,265,11.0,25.0,30,0.00,,,0.00,286.000000,,2013-03-21 01:00:00,
2013-03-20 18:33:00,51.0,21.0,-100.00,West,265,11.0,25.0,30,0.00,,,0.00,286.000000,,2013-03-21 01:33:00,
2013-03-20 18:42:00,51.0,21.0,-100.00,West,265,11.0,25.0,30,0.00,,,0.00,286.000000,,2013-03-21 01:42:00,
2013-03-20 18:52:00,51.0,21.0,-100.00,West,265,11.0,25.0,30,0.00,,,0.00,286.000000,,2013-03-21 01:52:00,
2013-03-20 19:00:00,49.0,22.0,-100.00,WSW,255,11.0,20.0,34,0.00,,,0.00,106.000000,,2013-03-21 02:00:00,
2013-03-20 19:33:00,49.0,22.0,-100.00,WSW,255,11.0,20.0,34,0.00,,,0.00,106.000000,,2013-03-21 02:33:00,
2013-03-20 19:42:00,49.0,22.0,-100.00,WSW,255,11.0,20.0,34,0.00,,,0.00,106.000000,,2013-03-21 02:42:00,
2013-03-20 19:52:00,49.0,22.0,-100.00,WSW,255,11.0,20.0,34,0.00,,,0.00,106.000000,,2013-03-21 02:52:00,
2013-03-20 20:00:00,48.0,23.0,-100.00,West,265,11.0,19.0,37,0.00,,,0.00,6.000000,,2013-03-21 03:00:00,
2013-03-20 20:33:00,48.0,23.0,-100.00,West,265,11.0,19.0,37,0.00,,,0.00,6.000000,,2013-03-21 03:33:00,
2013-03-20 20:43:00,48.0,23.0,-100.00,West,265,11.0,19.0,37,0.00,,,0.00,6.000000,,2013-03-21 03:43:00,
2013-03-20 20:53:00,48.0,23.0,-100.00,West,265,11.0,19.0,37,0.00,,,0.00,6.000000,,2013-03-21 03:53:00,
2013-03-20 21:00:00,46.0,22.0,-100.00,West,263,9.0,19.0,39,0.00,,,0.00,0.000000,,2013-03-21 04:00:00,
2013-03-20 21:23:00,46.0,22.0,-100.00,West,263,9.0,19.0,39,0.00,,,0.00,0.000000,,2013-03-21 04:23:00,
2013-03-20 21:33:00,46.0,22.0,-100.00,West,263,9.0,19.0,39,0.00,,,0.00,0.000000,,2013-03-21 04:33:00,
2013-03-20 21:43:00,46.0,22.0,-100.00,West,263,9.0,19.0,39,0.00,,,0.00,0.000000,,2013-03-21 04:43:00,
2013-03-20 21:53:00,46.0,22.0,-100.00,West,263,9.0,19.0,39,0.00,,,0.00,0.000000,,2013-03-21 04:53:00,
2013-03-20 22:00:00,45.0,23.0,-100.00,West,260,7.0,17.0,41,0.00,,,0.00,0.000000,,2013-03-21 05:00:00,
2013-03-20 22:22:00,45.0,23.0,-100.00,West,260,7.0,17.0,41,0.00,,,0.00,0.000000,,2013-03-21 05:22:00,
2013-03-20 22:33:00,45.0,23.0,-100.00,West,260,7.0,17.0,41,0.00,,,0.00,0.000000,,2013-03-21 05:33:00,
2013-03-20 22:44:00,45.0,23.0,-100.00,West,260,7.0,17.0,41,0.00,,,0.00,0.000000,,2013-03-21 05:44:00,
2013-03-20 22:52:00,45.0,23.0,-100.00,West,260,7.0,17.0,41,0.00,,,0.00,0.000000,,2013-03-21 05:52:00,
2013-03-20 23:00:00,45.0,23.0,-100.00,West,269,9.0,19.0,42,0.00,,,0.00,0.000000,,2013-03-21 06:00:00,
2013-03-20 23:23:00,45.0,23.0,-100.00,West,269,9.0,19.0,42,0.00,,,0.00,0.000000,,2013-03-21 06:23:00,
2013-03-20 23:32:00,45.0,23.0,-100.00,West,269,9.0,19.0,42,0.00,,,0.00,0.000000,,2013-03-21 06:32:00,
2013-03-20 23:42:00,45.0,23.0,-100.00,West,269,9.0,19.0,42,0.00,,,0.00,0.000000,,2013-03-21 06:42:00,
2013-03-20 23:52:00,45.0,23.0,-100.00,West,269,9.0,19.0,42,0.00,,,0.00,0.000000,,2013-03-21 06:52:00,